Time;durP1;ratioP1;P1;durP2;ratioP2;P2;SDS_P1;SDS_P2;PMS_P1;PMS_P2;Temp;Humidity;BMP_temperature;BMP_pressure;BME280_temperature;BME280_humidity;BME280_pressure;Samples;Min_cycle;Max_cycle;Signal;HPM_P1;HPM_P2
2022/09/05 00:02:28;;;;;;;2.93;2.63;;;16.00;99.90;;;;;;5044214;28;20747;-79
2022/09/05 00:05:08;;;;;;;3.60;3.30;;;16.00;99.90;;;;;;5046625;28;20670;-78
2022/09/05 00:07:42;;;;;;;2.90;2.70;;;16.00;99.90;;;;;;5043876;28;20682;-79
2022/09/05 00:10:18;;;;;;;2.67;2.47;;;15.90;99.90;;;;;;5047616;28;20610;-79
2022/09/05 00:12:46;;;;;;;3.80;2.40;;;15.90;99.90;;;;;;5043926;28;20622;-79
2022/09/05 00:15:24;;;;;;;3.43;2.73;;;15.80;99.90;;;;;;5045347;28;20626;-79
2022/09/05 00:18:22;;;;;;;5.80;2.50;;;15.80;99.90;;;;;;5046972;28;20621;-78
2022/09/05 00:20:57;;;;;;;3.73;2.90;;;15.80;99.90;;;;;;5042241;28;20657;-79
2022/09/05 00:23:36;;;;;;;3.93;2.60;;;15.80;99.90;;;;;;5047801;28;20630;-79
2022/09/05 00:26:16;;;;;;;3.83;2.90;;;15.70;99.90;;;;;;5047895;28;20646;-79
2022/09/05 00:28:51;;;;;;;3.33;3.03;;;15.70;99.90;;;;;;5046792;28;20632;-79
2022/09/05 00:31:46;;;;;;;2.83;2.50;;;15.70;99.90;;;;;;5046693;28;20653;-79
2022/09/05 00:34:27;;;;;;;2.53;2.33;;;15.70;99.90;;;;;;5046375;28;20628;-79
2022/09/05 00:36:55;;;;;;;3.50;2.80;;;15.70;99.90;;;;;;5042719;28;20701;-79
2022/09/05 00:39:26;;;;;;;3.20;3.00;;;15.60;99.90;;;;;;5046608;28;20621;-79
2022/09/05 00:41:59;;;;;;;4.10;2.73;;;15.60;99.90;;;;;;5049948;28;20654;-79
2022/09/05 00:44:30;;;;;;;2.90;2.70;;;15.60;99.90;;;;;;5049964;28;20648;-79
2022/09/05 00:47:06;;;;;;;3.50;3.17;;;15.50;99.90;;;;;;5050515;28;20669;-78
2022/09/05 00:49:39;;;;;;;4.83;2.87;;;15.50;99.90;;;;;;5050731;28;20625;-79
2022/09/05 00:52:12;;;;;;;4.57;3.03;;;15.50;99.90;;;;;;5050085;28;20643;-79
2022/09/05 00:54:58;;;;;;;3.00;2.80;;;15.50;99.90;;;;;;5049907;28;20630;-79
2022/09/05 00:57:49;;;;;;;3.07;2.77;;;15.50;99.90;;;;;;5048308;28;20637;-80
2022/09/05 01:00:18;;;;;;;3.10;2.67;;;15.50;99.90;;;;;;5053239;28;20633;-81
2022/09/05 01:03:21;;;;;;;3.00;2.80;;;15.50;99.90;;;;;;5045599;28;20632;-79
2022/09/05 01:06:23;;;;;;;3.33;2.90;;;15.50;99.90;;;;;;5034016;28;20657;-79
2022/09/05 01:09:26;;;;;;;3.13;2.93;;;15.50;99.90;;;;;;5039418;28;20648;-79
2022/09/05 01:12:04;;;;;;;2.90;2.70;;;15.40;99.90;;;;;;5046012;28;20660;-79
2022/09/05 01:14:50;;;;;;;4.83;2.47;;;15.40;99.90;;;;;;5049528;28;20625;-79
2022/09/05 01:17:32;;;;;;;3.73;2.77;;;15.30;99.90;;;;;;5049322;28;21219;-80
2022/09/05 01:20:20;;;;;;;4.23;3.50;;;15.30;99.90;;;;;;5046584;28;20633;-79
2022/09/05 01:23:26;;;;;;;3.00;2.80;;;15.30;99.90;;;;;;5048572;28;20637;-79
2022/09/05 01:26:20;;;;;;;3.30;3.00;;;15.30;99.90;;;;;;5046404;28;20665;-79
2022/09/05 01:28:56;;;;;;;5.10;2.70;;;15.30;99.90;;;;;;5044767;28;20637;-80
2022/09/05 01:31:31;;;;;;;3.07;2.50;;;15.30;99.90;;;;;;5049818;28;20653;-79
2022/09/05 01:34:08;;;;;;;3.20;2.87;;;15.20;99.90;;;;;;5050189;28;20744;-80
2022/09/05 01:36:51;;;;;;;3.50;2.80;;;15.20;99.90;;;;;;5048215;28;20634;-79
2022/09/05 01:39:25;;;;;;;5.40;3.27;;;15.20;99.90;;;;;;5048904;28;20636;-79
2022/09/05 01:41:58;;;;;;;2.33;2.23;;;15.10;99.90;;;;;;5049859;28;20672;-80
2022/09/05 01:44:47;;;;;;;3.60;2.70;;;15.10;99.90;;;;;;5048654;28;20629;-79
2022/09/05 01:47:34;;;;;;;3.10;2.80;;;15.10;99.90;;;;;;5049019;28;20653;-80
2022/09/05 01:50:15;;;;;;;4.50;2.97;;;15.10;99.90;;;;;;5051273;28;20622;-79
2022/09/05 01:52:57;;;;;;;3.03;2.83;;;15.10;99.90;;;;;;5043923;28;20624;-79
2022/09/05 01:55:36;;;;;;;3.20;2.87;;;15.10;99.90;;;;;;5048521;28;20622;-81
2022/09/05 01:58:13;;;;;;;3.00;2.47;;;15.00;99.90;;;;;;5049348;28;20632;-78
2022/09/05 02:00:50;;;;;;;4.10;2.33;;;15.00;99.90;;;;;;5048819;28;20664;-79
2022/09/05 02:03:28;;;;;;;3.00;2.80;;;15.00;99.90;;;;;;5048883;28;21002;-79
2022/09/05 02:06:27;;;;;;;4.10;3.57;;;15.00;99.90;;;;;;5048347;28;20676;-78
2022/09/05 02:09:09;;;;;;;4.63;2.67;;;14.90;99.90;;;;;;5045536;28;20613;-80
2022/09/05 02:11:41;;;;;;;3.57;3.27;;;14.90;99.90;;;;;;5048628;28;20658;-80
2022/09/05 02:14:20;;;;;;;3.87;3.30;;;14.80;99.90;;;;;;5048356;28;20633;-80
2022/09/05 02:16:49;;;;;;;2.90;2.70;;;14.90;99.90;;;;;;5043999;28;20625;-79
2022/09/05 02:19:23;;;;;;;2.87;2.67;;;14.90;99.90;;;;;;5049212;28;20664;-80
2022/09/05 02:21:57;;;;;;;3.10;2.80;;;14.90;99.90;;;;;;5044369;28;20650;-80
2022/09/05 02:24:28;;;;;;;3.20;2.97;;;14.80;99.90;;;;;;5048828;28;20624;-79
2022/09/05 02:27:10;;;;;;;3.27;3.07;;;14.80;99.90;;;;;;5049075;28;20666;-80
2022/09/05 02:29:43;;;;;;;3.10;2.90;;;14.80;99.90;;;;;;5048468;28;20637;-80
2022/09/05 02:32:18;;;;;;;3.00;2.40;;;14.70;99.90;;;;;;5054548;28;20650;-80
2022/09/05 02:34:54;;;;;;;8.40;2.80;;;14.70;99.90;;;;;;5042912;28;20624;-79
2022/09/05 02:37:25;;;;;;;3.60;2.80;;;14.70;99.90;;;;;;5049268;28;20620;-80
2022/09/05 02:39:59;;;;;;;3.37;3.17;;;14.70;99.90;;;;;;5048975;28;21190;-80
2022/09/05 02:42:33;;;;;;;3.50;3.23;;;14.70;99.90;;;;;;5047341;28;20650;-80
2022/09/05 02:45:14;;;;;;;2.93;2.70;;;14.70;99.90;;;;;;5048025;28;20649;-80
2022/09/05 02:47:48;;;;;;;3.70;3.00;;;14.60;99.90;;;;;;5044534;28;20646;-79
2022/09/05 02:50:29;;;;;;;3.63;3.33;;;14.60;99.90;;;;;;5048164;28;21171;-80
2022/09/05 02:52:57;;;;;;;3.40;3.10;;;14.60;99.90;;;;;;5044750;28;21091;-79
2022/09/05 02:55:34;;;;;;;3.30;3.03;;;14.60;99.90;;;;;;5047326;28;21189;-79
2022/09/05 02:58:17;;;;;;;3.30;3.00;;;14.60;99.90;;;;;;5047447;28;20632;-78
2022/09/05 03:00:52;;;;;;;5.10;2.70;;;14.50;99.90;;;;;;5041836;28;20660;-79
2022/09/05 03:03:33;;;;;;;4.50;3.10;;;14.40;99.90;;;;;;5047861;28;20637;-79
2022/09/05 03:06:05;;;;;;;3.73;3.37;;;14.40;99.90;;;;;;5046913;28;21448;-79
2022/09/05 03:08:59;;;;;;;5.87;3.13;;;14.40;99.90;;;;;;5047909;28;20717;-78
2022/09/05 03:12:05;;;;;;;2.90;2.70;;;14.40;99.90;;;;;;5047904;28;20650;-79
2022/09/05 03:15:12;;;;;;;4.33;3.37;;;14.40;99.90;;;;;;5014820;28;20629;-79
2022/09/05 03:18:15;;;;;;;6.93;3.60;;;14.40;99.90;;;;;;5046061;28;20629;-78
2022/09/05 03:21:02;;;;;;;4.17;3.80;;;14.40;99.90;;;;;;5042357;28;20649;-78
2022/09/05 03:24:17;;;;;;;3.93;3.63;;;14.40;99.90;;;;;;5048406;28;20633;-79
2022/09/05 03:27:09;;;;;;;6.60;3.87;;;14.40;99.90;;;;;;5035762;28;21021;-78
2022/09/05 03:30:07;;;;;;;3.93;3.57;;;14.30;99.90;;;;;;5046177;28;20630;-80
2022/09/05 03:33:13;;;;;;;4.83;3.70;;;14.30;99.90;;;;;;5047775;28;20654;-80
2022/09/05 03:36:15;;;;;;;5.33;4.30;;;14.30;99.90;;;;;;5047120;28;20637;-80
2022/09/05 03:39:15;;;;;;;4.93;4.30;;;14.30;99.90;;;;;;5044420;28;20614;-79
2022/09/05 03:42:07;;;;;;;4.20;3.90;;;14.30;99.90;;;;;;5042416;28;20682;-80
2022/09/05 03:44:48;;;;;;;4.23;3.87;;;14.30;99.90;;;;;;5047020;28;21160;-80
2022/09/05 03:47:47;;;;;;;5.63;3.90;;;14.30;99.90;;;;;;5050724;28;20711;-80
2022/09/05 03:50:32;;;;;;;4.33;4.00;;;14.30;99.90;;;;;;5046322;28;20725;-80
2022/09/05 03:53:31;;;;;;;3.97;3.67;;;14.30;99.90;;;;;;5043876;28;21185;-80
2022/09/05 03:56:12;;;;;;;4.07;3.73;;;14.20;99.90;;;;;;5028778;28;21006;-80
2022/09/05 03:59:12;;;;;;;3.40;3.10;;;14.20;99.90;;;;;;5047447;28;20621;-80
2022/09/05 04:01:44;;;;;;;4.30;3.90;;;14.10;99.90;;;;;;5045494;28;20662;-80
2022/09/05 04:04:23;;;;;;;4.20;3.90;;;14.20;99.90;;;;;;5046835;28;20629;-80
2022/09/05 04:06:54;;;;;;;4.90;3.33;;;14.10;99.90;;;;;;5040098;28;20669;-80
2022/09/05 04:09:26;;;;;;;4.17;3.83;;;14.20;99.90;;;;;;5047372;28;20618;-80
2022/09/05 04:11:59;;;;;;;3.60;3.30;;;14.20;99.90;;;;;;5047626;28;20654;-80
2022/09/05 04:14:33;;;;;;;3.53;3.23;;;14.20;99.90;;;;;;5044350;28;21241;-80
2022/09/05 04:17:06;;;;;;;4.10;3.80;;;14.10;99.90;;;;;;5050304;28;20618;-80
2022/09/05 04:19:40;;;;;;;4.73;3.70;;;14.10;99.90;;;;;;5051011;28;20633;-80
2022/09/05 04:22:19;;;;;;;3.70;3.37;;;14.10;99.90;;;;;;5051026;28;21012;-80
2022/09/05 04:24:52;;;;;;;4.67;4.27;;;14.20;99.90;;;;;;5051534;28;20617;-80
2022/09/05 04:27:29;;;;;;;3.93;3.50;;;14.10;99.90;;;;;;5051209;28;20654;-80
2022/09/05 04:30:00;;;;;;;3.90;3.60;;;14.10;99.90;;;;;;5051299;28;20627;-79
2022/09/05 04:32:49;;;;;;;4.07;3.67;;;14.10;99.90;;;;;;5049925;28;21223;-80
2022/09/05 04:35:39;;;;;;;4.07;3.57;;;14.10;99.90;;;;;;5050562;28;21578;-80
2022/09/05 04:38:12;;;;;;;4.07;3.67;;;14.10;99.90;;;;;;5051113;28;20640;-79
2022/09/05 04:40:50;;;;;;;4.47;4.13;;;14.10;99.90;;;;;;5050274;28;20660;-80
2022/09/05 04:43:39;;;;;;;4.83;4.03;;;14.10;99.90;;;;;;5049712;28;20616;-79
2022/09/05 04:46:17;;;;;;;4.87;3.90;;;14.10;99.90;;;;;;5047196;28;20605;-79
2022/09/05 04:48:50;;;;;;;6.23;3.93;;;14.10;99.90;;;;;;5048689;28;20629;-79
2022/09/05 04:51:45;;;;;;;4.60;4.20;;;14.10;99.90;;;;;;5050226;28;20653;-79
2022/09/05 04:54:28;;;;;;;4.60;4.30;;;14.10;99.90;;;;;;5012808;28;21181;-79
2022/09/05 04:57:01;;;;;;;4.90;4.50;;;14.10;99.90;;;;;;5049847;28;20606;-80
2022/09/05 04:59:36;;;;;;;4.30;4.00;;;14.10;99.90;;;;;;5048040;28;20629;-79
2022/09/05 05:02:10;;;;;;;6.33;4.90;;;14.10;99.90;;;;;;5047041;28;20668;-79
2022/09/05 05:04:37;;;;;;;4.20;3.90;;;14.10;99.90;;;;;;5049087;28;20633;-79
2022/09/05 05:07:07;;;;;;;5.33;4.87;;;14.10;99.90;;;;;;5049098;28;20665;-79
2022/09/05 05:09:43;;;;;;;6.03;4.70;;;14.10;99.90;;;;;;5053457;28;20630;-79
2022/09/05 05:12:19;;;;;;;4.97;4.57;;;14.20;99.90;;;;;;5050709;28;20748;-79
2022/09/05 05:14:52;;;;;;;7.60;5.13;;;14.20;99.90;;;;;;5050387;28;20618;-79
2022/09/05 05:17:27;;;;;;;4.90;4.40;;;14.20;99.90;;;;;;5050601;28;20630;-79
2022/09/05 05:20:01;;;;;;;5.40;5.00;;;14.20;99.90;;;;;;5050172;28;21008;-80
2022/09/05 05:22:28;;;;;;;6.80;4.53;;;14.20;99.90;;;;;;5049433;28;20649;-79
2022/09/05 05:24:57;;;;;;;5.77;5.27;;;14.20;99.90;;;;;;5048243;28;20622;-79
2022/09/05 05:27:27;;;;;;;6.53;5.20;;;14.20;99.90;;;;;;5048128;28;20732;-80
2022/09/05 05:30:00;;;;;;;5.20;4.70;;;14.30;99.90;;;;;;5049213;28;20626;-80
2022/09/05 05:32:30;;;;;;;4.97;4.67;;;14.30;99.90;;;;;;5049781;28;20661;-79
2022/09/05 05:35:02;;;;;;;5.40;5.00;;;14.40;99.90;;;;;;5053606;28;20640;-79
2022/09/05 05:37:33;;;;;;;4.97;4.57;;;14.40;99.90;;;;;;5048807;28;20636;-79
2022/09/05 05:40:05;;;;;;;4.77;4.40;;;14.40;99.90;;;;;;5049434;28;20630;-79
2022/09/05 05:42:32;;;;;;;4.53;4.10;;;14.40;99.90;;;;;;5049346;28;20661;-80
2022/09/05 05:45:02;;;;;;;5.50;4.77;;;14.50;99.90;;;;;;5048732;28;20747;-80
2022/09/05 05:47:35;;;;;;;5.53;5.00;;;14.50;99.90;;;;;;5049169;28;20724;-80
2022/09/05 05:50:09;;;;;;;7.70;4.53;;;14.60;99.90;;;;;;5049222;28;20636;-80
2022/09/05 05:53:11;;;;;;;5.90;5.30;;;14.60;99.90;;;;;;5048547;28;20752;-80
2022/09/05 05:55:56;;;;;;;5.63;4.97;;;14.80;99.90;;;;;;5035086;28;21140;-80
2022/09/05 05:58:38;;;;;;;5.90;5.37;;;14.80;99.90;;;;;;5049920;28;20637;-79
2022/09/05 06:01:46;;;;;;;5.53;5.13;;;14.90;99.90;;;;;;5049278;28;20665;-80
2022/09/05 06:05:02;;;;;;;6.10;5.10;;;15.00;99.90;;;;;;5046956;28;20650;-79
2022/09/05 06:07:37;;;;;;;8.40;5.10;;;15.10;99.90;;;;;;5047982;28;20677;-78
2022/09/05 06:10:40;;;;;;;4.93;4.53;;;15.20;99.90;;;;;;5049719;28;21047;-81
2022/09/05 06:13:33;;;;;;;5.60;5.10;;;15.30;99.90;;;;;;5055072;28;20625;-79
2022/09/05 06:16:45;;;;;;;6.50;5.57;;;15.30;99.90;;;;;;5043701;28;20625;-80
2022/09/05 06:19:51;;;;;;;5.17;4.63;;;15.40;99.90;;;;;;5047152;28;20629;-79
2022/09/05 06:22:59;;;;;;;5.77;5.23;;;15.40;99.90;;;;;;5044976;28;21040;-80
2022/09/05 06:25:56;;;;;;;8.20;5.03;;;15.40;99.90;;;;;;5031013;28;20626;-79
2022/09/05 06:28:33;;;;;;;6.73;5.10;;;15.50;99.90;;;;;;5048102;28;20661;-80
2022/09/05 06:31:18;;;;;;;5.50;5.10;;;15.60;99.90;;;;;;5047778;28;20638;-79
2022/09/05 06:33:57;;;;;;;5.10;4.70;;;15.70;99.90;;;;;;5042873;28;20733;-79
2022/09/05 06:36:36;;;;;;;5.90;5.30;;;15.60;99.90;;;;;;5046864;28;20657;-80
2022/09/05 06:39:11;;;;;;;5.87;5.07;;;15.70;99.90;;;;;;5047586;28;21133;-79
2022/09/05 06:41:52;;;;;;;9.47;7.50;;;15.80;99.90;;;;;;5046175;28;20616;-79
2022/09/05 06:44:46;;;;;;;6.33;4.50;;;15.90;99.90;;;;;;5047510;28;21012;-79
2022/09/05 06:47:18;;;;;;;6.03;4.97;;;16.00;99.90;;;;;;5046302;28;20676;-79
2022/09/05 06:50:04;;;;;;;5.93;5.23;;;16.10;99.90;;;;;;5044603;28;20610;-79
2022/09/05 06:53:09;;;;;;;6.80;4.80;;;16.30;99.90;;;;;;5046130;28;20722;-79
2022/09/05 06:55:55;;;;;;;4.93;4.53;;;16.60;99.90;;;;;;5045968;28;20999;-79
2022/09/05 06:58:41;;;;;;;5.30;4.80;;;16.70;99.90;;;;;;5046939;28;20617;-79
2022/09/05 07:01:09;;;;;;;6.90;5.30;;;16.80;99.90;;;;;;5046248;28;20629;-79
2022/09/05 07:03:56;;;;;;;4.93;4.43;;;17.00;99.90;;;;;;5044151;28;20634;-79
2022/09/05 07:06:34;;;;;;;5.73;5.23;;;17.10;99.90;;;;;;5045060;28;20672;-79
2022/09/05 07:09:07;;;;;;;4.80;4.30;;;17.20;99.90;;;;;;5046365;28;21049;-79
2022/09/05 07:11:44;;;;;;;5.87;4.60;;;17.40;99.90;;;;;;5046743;28;20637;-79
2022/09/05 07:14:18;;;;;;;5.20;4.63;;;17.40;99.90;;;;;;5046083;28;21024;-79
2022/09/05 07:16:51;;;;;;;4.77;4.03;;;17.50;99.90;;;;;;5041593;28;20660;-79
2022/09/05 07:19:27;;;;;;;3.83;3.50;;;17.60;99.90;;;;;;5046522;28;20629;-79
2022/09/05 07:22:31;;;;;;;4.27;3.87;;;17.70;99.90;;;;;;5043693;28;21165;-79
2022/09/05 07:25:01;;;;;;;3.80;3.53;;;17.90;99.90;;;;;;4965524;28;20629;-79
2022/09/05 07:27:37;;;;;;;5.13;4.40;;;18.00;99.90;;;;;;5031641;28;20678;-78
2022/09/05 07:30:06;;;;;;;7.93;3.47;;;18.10;99.90;;;;;;5046500;28;20969;-78
2022/09/05 07:32:41;;;;;;;4.30;3.90;;;18.20;99.90;;;;;;5043215;28;20688;-79
2022/09/05 07:35:16;;;;;;;5.80;4.10;;;18.20;99.90;;;;;;5029455;28;20609;-79
2022/09/05 07:37:45;;;;;;;3.90;3.60;;;18.40;99.90;;;;;;5038163;28;20685;-79
2022/09/05 07:40:16;;;;;;;3.43;3.23;;;18.50;99.90;;;;;;5035502;28;20722;-79
2022/09/05 07:42:49;;;;;;;4.10;3.70;;;18.70;99.90;;;;;;5040274;28;20633;-80
2022/09/05 07:45:23;;;;;;;7.80;3.50;;;18.80;99.90;;;;;;5042444;28;20610;-79
2022/09/05 07:47:58;;;;;;;3.13;2.83;;;18.90;99.90;;;;;;5037639;28;20656;-80
2022/09/05 07:50:26;;;;;;;3.23;2.93;;;19.00;99.90;;;;;;5043941;28;20622;-79
2022/09/05 07:52:54;;;;;;;3.63;3.43;;;19.20;99.90;;;;;;5044722;28;21199;-79
2022/09/05 07:55:27;;;;;;;3.57;3.27;;;19.20;99.90;;;;;;5043928;28;20630;-79
2022/09/05 07:57:59;;;;;;;3.40;3.10;;;19.30;99.90;;;;;;5045169;28;20611;-79
2022/09/05 08:00:28;;;;;;;3.53;3.23;;;19.50;99.90;;;;;;5044235;28;20640;-79
2022/09/05 08:02:57;;;;;;;4.50;3.30;;;19.60;99.90;;;;;;5045048;28;20622;-79
2022/09/05 08:05:28;;;;;;;3.73;3.40;;;19.70;99.90;;;;;;5043865;28;20727;-79
2022/09/05 08:07:59;;;;;;;3.77;3.47;;;19.80;99.90;;;;;;5042767;28;20664;-79
2022/09/05 08:10:29;;;;;;;4.03;3.63;;;19.90;99.90;;;;;;5049929;28;20622;-79
2022/09/05 08:13:03;;;;;;;3.47;3.17;;;20.00;99.90;;;;;;5045339;28;20640;-79
2022/09/05 08:15:30;;;;;;;3.40;2.90;;;20.10;99.90;;;;;;5044653;28;20629;-78
2022/09/05 08:20:37;;;;;;;3.27;2.97;;;20.20;99.90;;;;;;5025950;28;21004;-92
2022/09/05 08:23:10;;;;;;;4.23;2.83;;;20.30;99.90;;;;;;5026114;28;20630;-95
2022/09/05 08:25:47;;;;;;;2.70;2.50;;;20.40;99.90;;;;;;5013015;28;20646;-91
2022/09/05 08:28:23;;;;;;;4.27;2.90;;;20.60;99.90;;;;;;5009612;28;20655;-92
2022/09/05 08:30:59;;;;;;;2.87;2.67;;;20.70;99.90;;;;;;5020383;28;20619;-93
2022/09/05 08:33:32;;;;;;;4.57;4.17;;;20.80;99.90;;;;;;5019183;28;20592;-93
2022/09/05 08:36:03;;;;;;;3.10;2.30;;;20.90;99.90;;;;;;5021193;28;20621;-94
2022/09/05 08:38:35;;;;;;;4.10;2.53;;;21.00;99.90;;;;;;5024256;28;20689;-93
2022/09/05 08:41:08;;;;;;;4.07;3.00;;;21.00;99.90;;;;;;5025883;28;20631;-93
2022/09/05 08:43:41;;;;;;;5.50;2.20;;;21.20;99.90;;;;;;5027282;28;20613;-94
2022/09/05 08:46:15;;;;;;;3.20;2.50;;;21.30;99.90;;;;;;5024151;28;20717;-94
2022/09/05 08:49:03;;;;;;;2.50;2.20;;;21.40;99.90;;;;;;5019861;28;20693;-93
2022/09/05 08:51:40;;;;;;;3.10;2.70;;;21.50;99.90;;;;;;5032190;28;20631;-93
2022/09/05 08:54:24;;;;;;;4.10;2.80;;;21.60;99.90;;;;;;5025095;28;20624;-94
2022/09/05 08:57:00;;;;;;;3.97;3.03;;;21.70;99.90;;;;;;5020359;28;21066;-93
2022/09/05 08:59:43;;;;;;;6.77;2.63;;;21.70;99.90;;;;;;5030439;28;20645;-93
2022/09/05 09:02:38;;;;;;;5.50;2.67;;;21.90;99.90;;;;;;5027572;28;20649;-93
2022/09/05 09:05:16;;;;;;;3.00;2.43;;;22.00;99.90;;;;;;5024598;28;20634;-93
2022/09/05 09:07:50;;;;;;;2.73;2.30;;;22.00;99.90;;;;;;5025268;28;21084;-94
2022/09/05 09:10:36;;;;;;;4.87;2.77;;;22.20;99.90;;;;;;5032754;28;20662;-92
2022/09/05 09:13:10;;;;;;;3.93;2.53;;;22.30;99.90;;;;;;5049855;28;20786;-93
2022/09/05 09:15:44;;;;;;;3.37;2.30;;;22.40;99.90;;;;;;5014216;28;21024;-92
2022/09/05 09:18:14;;;;;;;3.90;2.23;;;22.60;99.90;;;;;;5050751;28;20599;-91
2022/09/05 09:20:51;;;;;;;4.63;2.90;;;22.60;99.90;;;;;;5043915;28;20583;-92
2022/09/05 09:23:43;;;;;;;4.70;2.80;;;22.70;99.90;;;;;;5031132;28;20688;-93
2022/09/05 09:26:15;;;;;;;4.30;2.37;;;22.80;99.90;;;;;;5030788;28;20634;-93
2022/09/05 09:28:56;;;;;;;2.60;2.40;;;23.00;99.90;;;;;;5036624;28;20650;-93
2022/09/05 09:32:05;;;;;;;2.70;2.17;;;23.00;99.90;;;;;;5050752;28;20602;-93
2022/09/05 09:34:43;;;;;;;2.00;1.90;;;23.10;99.90;;;;;;5054170;28;20721;-94
2022/09/05 09:37:27;;;;;;;2.53;2.37;;;23.20;99.90;;;;;;5049573;28;20603;-93
2022/09/05 09:40:18;;;;;;;2.70;2.17;;;23.30;99.90;;;;;;5038347;28;20782;-92
2022/09/05 09:42:50;;;;;;;2.20;1.70;;;23.40;99.90;;;;;;5027492;28;20627;-94
2022/09/05 09:45:40;;;;;;;3.43;2.53;;;23.50;99.90;;;;;;5034109;28;21231;-94
2022/09/05 09:48:45;;;;;;;4.80;2.27;;;23.70;99.90;;;;;;5013643;28;20758;-95
2022/09/05 09:51:31;;;;;;;7.50;2.77;;;23.80;99.90;;;;;;4980506;28;20689;-94
2022/09/05 09:54:45;;;;;;;2.33;2.20;;;23.80;99.90;;;;;;5024324;28;20630;-93
2022/09/05 09:57:58;;;;;;;5.03;2.10;;;24.10;99.90;;;;;;5006143;28;21054;-94
2022/09/05 10:00:29;;;;;;;7.20;2.30;;;24.20;99.90;;;;;;5025839;28;20685;-94
2022/09/05 10:03:23;;;;;;;2.50;2.23;;;24.50;99.90;;;;;;5028551;28;20639;-94
2022/09/05 10:06:18;;;;;;;5.37;2.40;;;24.60;99.90;;;;;;5023127;28;20733;-93
2022/09/05 10:09:15;;;;;;;3.30;3.10;;;24.80;99.90;;;;;;5024197;28;20675;-94
2022/09/05 10:12:13;;;;;;;2.40;2.20;;;24.90;99.90;;;;;;5014335;28;20712;-93
2022/09/05 10:15:14;;;;;;;2.50;2.20;;;25.20;99.90;;;;;;5025973;28;20715;-93
2022/09/05 10:18:13;;;;;;;4.17;2.20;;;25.40;99.90;;;;;;5015701;28;20652;-92
2022/09/05 10:20:55;;;;;;;2.63;2.43;;;25.70;99.90;;;;;;5027096;28;20622;-93
2022/09/05 10:23:59;;;;;;;2.43;2.23;;;26.00;99.90;;;;;;5027818;28;20645;-93
2022/09/05 10:26:56;;;;;;;2.33;2.13;;;26.30;98.50;;;;;;5032413;28;20633;-93
2022/09/05 10:29:43;;;;;;;2.20;2.10;;;26.60;97.20;;;;;;5044073;28;20701;-93
2022/09/05 10:32:16;;;;;;;2.63;2.30;;;26.80;95.90;;;;;;5043229;28;20614;-93
2022/09/05 10:34:47;;;;;;;3.13;2.40;;;27.00;95.40;;;;;;5023969;28;20626;-93
2022/09/05 10:37:17;;;;;;;1.90;1.80;;;27.30;93.10;;;;;;5028331;28;20629;-93
2022/09/05 10:39:49;;;;;;;2.40;2.10;;;27.50;90.60;;;;;;5027186;28;20650;-94
2022/09/05 10:42:27;;;;;;;2.43;2.23;;;27.80;90.40;;;;;;5030147;28;21249;-94
2022/09/05 10:44:56;;;;;;;3.53;2.00;;;28.10;79.00;;;;;;5021950;28;20629;-95
2022/09/05 10:47:37;;;;;;;2.80;2.07;;;28.30;80.70;;;;;;5028107;28;20637;-94
2022/09/05 10:50:19;;;;;;;2.20;2.00;;;28.60;77.80;;;;;;5027137;28;20682;-94
2022/09/05 10:53:01;;;;;;;1.87;1.77;;;28.90;73.30;;;;;;5022644;28;20626;-93
2022/09/05 10:55:37;;;;;;;3.53;3.33;;;29.00;70.70;;;;;;5030139;28;20730;-92
2022/09/05 10:58:26;;;;;;;4.10;3.80;;;29.20;69.20;;;;;;5028386;28;20630;-93
2022/09/05 11:01:02;;;;;;;4.67;4.47;;;29.40;67.60;;;;;;5026276;28;20717;-94
2022/09/05 11:03:33;;;;;;;3.30;2.33;;;29.70;64.30;;;;;;5026661;28;20638;-94
2022/09/05 11:06:05;;;;;;;1.90;1.80;;;29.80;63.10;;;;;;5030721;28;20623;-93
2022/09/05 11:08:43;;;;;;;2.93;2.13;;;30.10;63.40;;;;;;5024582;28;20753;-94
2022/09/05 11:11:15;;;;;;;2.60;1.90;;;30.40;61.60;;;;;;5023653;28;20642;-94
2022/09/05 11:13:46;;;;;;;2.03;1.83;;;30.60;60.60;;;;;;5026236;28;20625;-93
2022/09/05 11:16:25;;;;;;;1.70;1.60;;;30.80;59.90;;;;;;5028067;28;20687;-92
2022/09/05 11:19:02;;;;;;;3.70;2.00;;;31.00;58.60;;;;;;5020533;28;20685;-92
2022/09/05 11:21:50;;;;;;;2.00;1.80;;;31.40;56.70;;;;;;5025698;28;20626;-94
2022/09/05 11:24:30;;;;;;;1.60;1.50;;;31.70;56.00;;;;;;5024845;28;20949;-91
2022/09/05 11:27:01;;;;;;;1.73;1.63;;;32.10;50.20;;;;;;5028221;28;20634;-92
2022/09/05 11:29:36;;;;;;;1.97;1.57;;;32.20;50.10;;;;;;5026251;28;20717;-92
2022/09/05 11:32:37;;;;;;;3.00;1.93;;;32.30;47.70;;;;;;5030932;28;20622;-93
2022/09/05 11:35:18;;;;;;;3.03;2.00;;;32.60;48.90;;;;;;5025251;28;20633;-91
2022/09/05 11:38:09;;;;;;;3.93;1.90;;;32.80;47.90;;;;;;5020750;28;20680;-95
2022/09/05 11:40:52;;;;;;;4.23;1.73;;;33.10;46.80;;;;;;5025573;28;20633;-93
2022/09/05 11:43:59;;;;;;;2.93;1.87;;;33.50;48.50;;;;;;5024311;28;20621;-92
2022/09/05 11:46:35;;;;;;;1.70;1.60;;;33.60;46.70;;;;;;5001972;28;20622;-93
2022/09/05 11:49:31;;;;;;;2.07;1.87;;;33.90;46.60;;;;;;5042991;28;20670;-94
2022/09/05 11:52:40;;;;;;;2.53;2.07;;;33.90;46.90;;;;;;5021902;28;20701;-95
2022/09/05 11:55:43;;;;;;;1.97;1.83;;;34.10;46.00;;;;;;5023953;28;21258;-94
2022/09/05 11:58:49;;;;;;;2.37;1.73;;;34.20;45.80;;;;;;5031420;28;20983;-95
2022/09/05 12:01:27;;;;;;;2.43;2.23;;;34.40;45.60;;;;;;4984856;28;20696;-95
2022/09/05 12:04:24;;;;;;;3.53;1.50;;;34.50;43.40;;;;;;5020211;28;20702;-95
2022/09/05 12:07:33;;;;;;;1.67;1.50;;;34.70;40.60;;;;;;5021265;28;20650;-95
2022/09/05 12:10:16;;;;;;;1.77;1.67;;;35.00;40.20;;;;;;5019407;28;20768;-95
2022/09/05 12:12:57;;;;;;;2.70;2.00;;;35.30;40.80;;;;;;5021129;28;21179;-94
2022/09/05 12:15:28;;;;;;;1.90;1.43;;;35.10;40.80;;;;;;5024175;28;21004;-95
2022/09/05 12:18:10;;;;;;;1.73;1.63;;;35.00;38.30;;;;;;5028477;28;20972;-93
2022/09/05 12:20:49;;;;;;;1.93;1.70;;;35.10;39.00;;;;;;5024322;28;20249;-94
2022/09/05 12:23:26;;;;;;;1.90;1.80;;;35.40;40.00;;;;;;5025467;28;20564;-94
2022/09/05 12:25:59;;;;;;;3.10;1.60;;;35.90;40.00;;;;;;5032593;28;20648;-94
2022/09/05 12:28:38;;;;;;;4.50;1.80;;;36.30;38.10;;;;;;5024879;28;20325;-94
2022/09/05 12:31:16;;;;;;;1.87;1.77;;;36.50;37.40;;;;;;5021712;28;20199;-93
2022/09/05 12:33:47;;;;;;;3.92;1.70;;;36.90;38.00;;;;;;5023790;28;20630;-93
2022/09/05 12:36:19;;;;;;;2.22;1.85;;;36.70;37.60;;;;;;5024617;28;20646;-93
2022/09/05 12:38:51;;;;;;;1.90;1.80;;;36.20;37.60;;;;;;5029628;28;20222;-95
2022/09/05 12:41:20;;;;;;;3.92;1.98;;;35.60;37.80;;;;;;5030630;28;20199;-94
2022/09/05 12:44:19;;;;;;;1.60;1.50;;;35.40;38.10;;;;;;5032777;28;20623;-94
2022/09/05 12:46:54;;;;;;;1.85;1.70;;;35.50;37.80;;;;;;5028299;28;20210;-95
2022/09/05 12:49:32;;;;;;;3.60;1.90;;;36.00;38.00;;;;;;5011387;28;20285;-94
2022/09/05 12:52:05;;;;;;;1.60;1.50;;;36.50;37.60;;;;;;5034335;28;20210;-93
2022/09/05 12:54:41;;;;;;;2.00;1.73;;;36.60;36.70;;;;;;5028503;28;20204;-93
2022/09/05 12:57:16;;;;;;;1.73;1.60;;;36.20;36.30;;;;;;5025481;28;20237;-93
2022/09/05 12:59:46;;;;;;;1.92;1.70;;;36.10;37.10;;;;;;5023814;28;20219;-95
2022/09/05 13:02:22;;;;;;;1.75;1.65;;;35.90;38.10;;;;;;5029831;28;20740;-95
2022/09/05 13:04:57;;;;;;;1.92;1.83;;;35.90;38.80;;;;;;5034539;28;20203;-94
2022/09/05 13:07:41;;;;;;;2.40;2.20;;;36.30;38.20;;;;;;5044897;28;20195;-93
2022/09/05 13:10:16;;;;;;;1.90;1.80;;;36.70;37.50;;;;;;5022777;28;20228;-92
2022/09/05 13:12:47;;;;;;;2.65;1.83;;;36.80;36.50;;;;;;5033711;28;20207;-94
2022/09/05 13:15:20;;;;;;;2.20;2.00;;;36.90;36.10;;;;;;5034279;28;20226;-94
2022/09/05 13:17:53;;;;;;;1.80;1.70;;;37.40;36.00;;;;;;5056045;28;20256;-93
2022/09/05 13:20:32;;;;;;;2.90;1.75;;;37.40;35.00;;;;;;5049484;28;20238;-92
2022/09/05 13:23:10;;;;;;;1.90;1.60;;;37.50;35.40;;;;;;5048391;28;20247;-94
2022/09/05 13:25:42;;;;;;;1.73;1.63;;;37.70;34.70;;;;;;5047776;28;20215;-94
2022/09/05 13:28:12;;;;;;;3.75;1.85;;;38.20;36.00;;;;;;5038215;28;20791;-94
2022/09/05 13:30:58;;;;;;;2.28;2.08;;;38.60;34.30;;;;;;5044124;28;20218;-93
2022/09/05 13:33:32;;;;;;;1.92;1.83;;;38.70;33.50;;;;;;5028011;28;20259;-93
2022/09/05 13:36:04;;;;;;;1.70;1.60;;;39.20;33.70;;;;;;5032296;28;20204;-93
2022/09/05 13:38:58;;;;;;;1.88;1.77;;;39.50;32.90;;;;;;5026869;28;20746;-94
2022/09/05 13:41:29;;;;;;;1.92;1.70;;;39.20;32.10;;;;;;5024013;28;20650;-94
2022/09/05 13:43:58;;;;;;;2.35;1.73;;;39.10;32.00;;;;;;5027169;28;20541;-94
2022/09/05 13:46:36;;;;;;;1.98;1.77;;;39.20;32.20;;;;;;5026309;28;20718;-94
2022/09/05 13:49:13;;;;;;;2.65;1.73;;;39.30;31.90;;;;;;5027119;28;20235;-93
2022/09/05 13:51:43;;;;;;;5.60;1.88;;;39.10;31.80;;;;;;5029976;28;20200;-94
2022/09/05 13:54:35;;;;;;;4.18;1.67;;;39.30;31.50;;;;;;5028947;28;20200;-93
2022/09/05 13:57:33;;;;;;;1.88;1.77;;;39.30;31.30;;;;;;5028525;28;20196;-94
2022/09/05 14:00:28;;;;;;;1.80;1.70;;;39.50;31.20;;;;;;5021881;28;20216;-94
2022/09/05 14:03:31;;;;;;;1.80;1.70;;;39.50;30.70;;;;;;5021848;28;20225;-95